createdAt,value
2022-12-07T19:08:27.023Z,1.68
2022-12-07T19:10:54.171Z,1.65
2022-12-07T19:13:22.255Z,1.55
2022-12-07T19:15:50.172Z,1.55
2022-12-07T19:18:18.093Z,1.52
2022-12-07T19:20:46.128Z,1.56
2022-12-07T19:23:14.139Z,1.54
2022-12-07T19:25:42.159Z,1.47
2022-12-07T19:28:10.159Z,1.45
2022-12-07T19:30:38.158Z,1.45
2022-12-07T19:33:06.139Z,1.47
2022-12-07T19:35:34.136Z,1.59
2022-12-07T19:38:02.172Z,1.52
2022-12-07T19:40:30.141Z,1.44
2022-12-07T19:42:58.198Z,1.45
2022-12-07T19:45:32.823Z,1.42
2022-12-07T19:48:00.125Z,1.40
2022-12-07T19:50:29.512Z,1.35
2022-12-07T19:52:56.211Z,1.37
2022-12-07T19:55:24.143Z,1.40
2022-12-07T19:57:52.118Z,1.32
2022-12-07T20:00:20.562Z,1.40
2022-12-07T20:02:51.881Z,1.28
2022-12-07T20:05:27.030Z,1.27
2022-12-07T20:07:54.188Z,1.31
2022-12-07T20:10:26.567Z,1.28
2022-12-07T20:13:12.581Z,1.26
2022-12-07T20:15:40.250Z,1.20
2022-12-07T20:18:08.163Z,1.30
2022-12-07T20:20:36.344Z,1.28
2022-12-07T20:23:04.121Z,1.24
2022-12-07T20:25:56.441Z,1.21
2022-12-07T20:28:24.707Z,1.28
2022-12-07T20:30:58.932Z,1.26
2022-12-07T20:33:26.368Z,1.17
2022-12-07T20:35:59.974Z,1.10
2022-12-07T20:38:29.373Z,1.05
2022-12-07T20:41:00.971Z,1.21
2022-12-07T20:43:33.835Z,1.11
2022-12-07T20:46:02.308Z,1.20
2022-12-07T20:48:39.153Z,1.16
2022-12-07T20:51:06.491Z,1.11
2022-12-07T20:53:34.164Z,1.10
2022-12-07T20:56:02.317Z,1.13
2022-12-07T20:58:34.168Z,1.11
2022-12-07T21:01:03.403Z,1.14
2022-12-07T21:03:30.122Z,1.21
2022-12-07T21:06:02.386Z,1.26
2022-12-07T21:08:57.335Z,1.27
2022-12-07T21:11:30.961Z,1.23
2022-12-07T21:14:24.243Z,1.23
2022-12-07T21:16:52.201Z,1.24
2022-12-07T21:19:20.152Z,1.24
2022-12-07T21:21:48.153Z,1.30
2022-12-07T21:24:16.205Z,1.35
2022-12-07T21:26:44.223Z,1.34
2022-12-07T21:29:12.178Z,1.35
2022-12-07T21:31:40.465Z,1.40
2022-12-07T21:34:08.467Z,1.38
2022-12-07T21:36:36.408Z,1.38
2022-12-07T21:39:08.211Z,1.42
2022-12-07T21:41:36.223Z,1.48
2022-12-07T21:47:02.336Z,1.52
2022-12-07T21:49:30.138Z,1.47
2022-12-07T21:52:23.867Z,1.54
2022-12-07T21:54:52.167Z,1.61
2022-12-07T21:57:24.199Z,1.63
2022-12-07T21:59:52.275Z,1.63
2022-12-07T22:02:44.184Z,1.59
2022-12-07T22:05:12.182Z,1.65
2022-12-07T22:07:40.401Z,1.69
2022-12-07T22:10:13.747Z,1.73
2022-12-07T22:12:42.594Z,1.70
2022-12-07T22:15:10.350Z,1.75
2022-12-07T22:18:07.186Z,1.80
2022-12-07T22:20:35.078Z,1.78
2022-12-07T22:23:07.381Z,1.82
2022-12-07T22:25:34.250Z,1.89
2022-12-07T22:28:07.295Z,1.87
2022-12-07T22:30:34.118Z,1.83
2022-12-07T22:33:02.197Z,1.89
2022-12-07T22:35:30.135Z,1.94
2022-12-07T22:37:58.134Z,1.94
2022-12-07T22:40:26.109Z,1.94
2022-12-07T22:42:59.198Z,1.87
2022-12-07T22:45:26.124Z,1.93
2022-12-07T22:47:54.132Z,1.96
2022-12-07T22:50:22.226Z,2.00
2022-12-07T22:52:53.104Z,2.00
2022-12-07T22:55:20.175Z,2.04
2022-12-07T22:57:53.139Z,1.99
2022-12-07T23:00:20.433Z,1.97
2022-12-07T23:02:48.258Z,2.00
2022-12-07T23:05:20.089Z,1.99
2022-12-07T23:07:53.503Z,2.03
2022-12-07T23:10:20.863Z,2.07
2022-12-07T23:13:07.008Z,2.10
2022-12-07T23:15:40.443Z,2.04
2022-12-07T23:18:17.135Z,2.10
2022-12-07T23:20:44.235Z,2.15
2022-12-07T23:23:12.125Z,2.08
2022-12-07T23:25:40.179Z,2.15
2022-12-07T23:28:32.581Z,2.10
2022-12-07T23:31:05.701Z,2.14
2022-12-07T23:33:34.779Z,2.20
2022-12-07T23:36:23.187Z,2.15
2022-12-07T23:41:44.247Z,2.06
2022-12-07T23:44:12.190Z,1.94
2022-12-07T23:46:45.443Z,2.13
2022-12-07T23:49:15.570Z,2.13
2022-12-07T23:51:44.337Z,2.15
2022-12-07T23:54:12.727Z,2.10
2022-12-07T23:56:40.187Z,2.13
2022-12-07T23:59:57.762Z,2.15
